createdAt,value
2023-02-23T08:08:50.650Z,73.56
2023-02-23T08:10:23.238Z,73.64
2023-02-23T08:11:55.286Z,73.41
2023-02-23T08:13:27.327Z,72.96
2023-02-23T08:15:00.537Z,73.38
2023-02-23T08:16:34.042Z,72.58
2023-02-23T08:18:06.034Z,72.15
2023-02-23T08:19:38.108Z,71.68
2023-02-23T08:21:10.277Z,71.51
2023-02-23T08:22:49.451Z,71.25
2023-02-23T08:24:22.194Z,70.37
2023-02-23T08:25:54.990Z,69.94
2023-02-23T08:27:27.108Z,69.39
2023-02-23T08:28:59.129Z,69.59
2023-02-23T08:30:34.989Z,69.57
2023-02-23T08:32:07.359Z,70.03
2023-02-23T08:33:39.970Z,68.55
2023-02-23T08:35:13.665Z,68.24
2023-02-23T08:36:45.823Z,68.51
2023-02-23T08:38:18.589Z,68.99
2023-02-23T08:39:50.677Z,69.04
2023-02-23T08:41:22.741Z,68.79
2023-02-23T08:42:54.918Z,68.42
2023-02-23T08:44:27.150Z,67.44
2023-02-23T08:45:59.264Z,67.57
2023-02-23T08:47:31.400Z,68.28
2023-02-23T08:49:05.123Z,67.75
2023-02-23T08:50:37.160Z,66.59
2023-02-23T08:52:09.265Z,66.78
2023-02-23T08:53:41.556Z,67.16
2023-02-23T08:55:17.029Z,65.90
2023-02-23T08:56:49.154Z,65.55
2023-02-23T08:58:21.141Z,65.42
2023-02-23T08:59:53.234Z,65.82
2023-02-23T09:01:25.443Z,66.67
2023-02-23T09:02:57.627Z,65.88
2023-02-23T09:04:32.921Z,66.04
2023-02-23T09:06:11.028Z,66.22
2023-02-23T09:07:45.576Z,66.00
2023-02-23T09:09:18.132Z,66.10
2023-02-23T09:10:50.304Z,65.93
2023-02-23T09:12:22.662Z,65.02
2023-02-23T09:13:55.514Z,64.41
2023-02-23T09:15:27.638Z,64.54
2023-02-23T09:16:59.690Z,64.49
2023-02-23T09:18:33.004Z,64.83
2023-02-23T09:20:06.443Z,65.18
2023-02-23T09:21:39.286Z,65.08
2023-02-23T09:23:12.587Z,64.49
2023-02-23T09:24:44.990Z,64.98
2023-02-23T09:26:19.275Z,64.78
2023-02-23T09:27:57.308Z,64.48
2023-02-23T09:29:29.338Z,63.30
2023-02-23T09:31:10.012Z,64.76
2023-02-23T09:32:44.817Z,64.52
2023-02-23T09:34:16.916Z,61.79
2023-02-23T09:35:48.943Z,61.87
2023-02-23T09:37:21.013Z,62.67
2023-02-23T09:38:56.768Z,62.69
2023-02-23T09:40:31.589Z,62.53
2023-02-23T09:42:20.840Z,62.60
2023-02-23T09:44:26.228Z,61.78
2023-02-23T09:46:36.538Z,60.54
2023-02-23T09:48:29.130Z,61.63
2023-02-23T09:50:04.289Z,61.54
2023-02-23T09:51:39.625Z,60.68
2023-02-23T09:53:41.654Z,60.75
2023-02-23T09:55:14.975Z,59.68
2023-02-23T09:56:48.920Z,59.58
2023-02-23T09:58:28.876Z,59.62
2023-02-23T10:00:01.461Z,59.74
2023-02-23T10:01:48.401Z,59.34
2023-02-23T10:03:41.870Z,59.56
2023-02-23T10:05:16.359Z,59.42
2023-02-23T10:07:15.172Z,58.62
2023-02-23T10:09:01.873Z,59.44
2023-02-23T10:10:45.238Z,58.33
2023-02-23T10:12:37.678Z,57.77
2023-02-23T10:14:35.475Z,57.82
2023-02-23T10:16:10.823Z,59.27
2023-02-23T10:17:48.700Z,59.05
2023-02-23T10:19:32.681Z,59.39
2023-02-23T10:21:04.711Z,59.71
2023-02-23T10:22:37.306Z,57.67
2023-02-23T10:24:31.452Z,58.57
2023-02-23T10:26:04.498Z,59.07
2023-02-23T10:27:42.322Z,58.95
2023-02-23T10:29:23.030Z,58.31
2023-02-23T10:30:58.351Z,58.72
2023-02-23T10:32:41.227Z,58.71
2023-02-23T10:34:18.422Z,58.38
2023-02-23T10:36:03.829Z,58.04
2023-02-23T10:37:46.464Z,57.75
2023-02-23T10:39:18.498Z,57.24
2023-02-23T10:40:55.336Z,58.39
2023-02-23T10:42:32.334Z,57.91
2023-02-23T10:44:16.258Z,58.82
2023-02-23T10:45:53.590Z,58.67
2023-02-23T10:47:32.190Z,57.35
2023-02-23T10:49:04.811Z,57.45
2023-02-23T10:50:38.039Z,56.99
2023-02-23T10:52:15.774Z,56.52
2023-02-23T10:53:48.153Z,56.54
2023-02-23T10:55:24.471Z,57.01
2023-02-23T10:56:56.645Z,57.21
2023-02-23T10:58:29.076Z,56.42
2023-02-23T11:00:12.567Z,56.34
2023-02-23T11:02:00.989Z,56.02
2023-02-23T11:03:40.550Z,57.05
2023-02-23T11:05:35.623Z,56.47
2023-02-23T11:07:19.862Z,57.62
2023-02-23T11:08:52.006Z,56.74
2023-02-23T11:10:28.569Z,55.90
2023-02-23T11:12:07.704Z,56.37
2023-02-23T11:13:42.805Z,56.75
2023-02-23T11:17:43.286Z,56.34
2023-02-23T11:19:30.760Z,56.24
2023-02-23T11:21:03.176Z,56.22
2023-02-23T11:22:36.962Z,57.03
2023-02-23T11:24:27.893Z,56.27
2023-02-23T11:26:07.411Z,56.65
2023-02-23T11:27:40.036Z,56.89
2023-02-23T11:29:20.190Z,55.99
2023-02-23T11:30:52.628Z,56.04
2023-02-23T11:32:30.939Z,56.01
2023-02-23T11:34:05.296Z,55.88
2023-02-23T11:35:38.261Z,56.38
2023-02-23T11:37:23.658Z,56.22
2023-02-23T11:39:10.195Z,56.20
2023-02-23T11:40:42.254Z,56.28
2023-02-23T11:42:20.527Z,56.46
2023-02-23T11:43:57.817Z,56.74
2023-02-23T11:45:34.029Z,55.90
2023-02-23T11:47:06.150Z,55.96
2023-02-23T11:48:48.606Z,55.43
2023-02-23T11:50:31.031Z,56.70
2023-02-23T11:52:03.611Z,56.43
2023-02-23T11:53:40.532Z,56.37
2023-02-23T11:55:17.334Z,56.33
2023-02-23T11:56:55.568Z,56.85
2023-02-23T11:58:49.805Z,56.20
2023-02-23T12:00:26.075Z,56.79
2023-02-23T12:02:07.122Z,56.43
2023-02-23T12:03:45.970Z,56.32
2023-02-23T12:05:22.789Z,56.35
2023-02-23T12:07:17.111Z,54.94
2023-02-23T12:08:55.028Z,54.67
2023-02-23T12:10:33.821Z,55.09
2023-02-23T12:12:15.918Z,54.62
2023-02-23T12:13:56.398Z,54.97
2023-02-23T12:16:03.934Z,54.39
2023-02-23T12:17:49.770Z,55.37
2023-02-23T12:19:30.194Z,55.84
2023-02-23T12:21:14.678Z,55.21
2023-02-23T12:22:56.170Z,54.95
2023-02-23T12:24:55.205Z,55.14
2023-02-23T12:26:28.823Z,55.54
2023-02-23T12:28:19.695Z,55.36
2023-02-23T12:30:09.843Z,54.57
2023-02-23T12:32:03.291Z,54.65
2023-02-23T12:33:40.137Z,55.19
2023-02-23T12:35:27.900Z,55.72
2023-02-23T12:37:16.230Z,55.12
2023-02-23T12:39:36.368Z,56.05
2023-02-23T12:41:14.071Z,55.01
2023-02-23T12:42:54.757Z,55.28
2023-02-23T12:44:47.187Z,55.92
2023-02-23T12:46:27.745Z,55.29
2023-02-23T12:48:20.419Z,55.10
2023-02-23T12:50:13.580Z,55.00
2023-02-23T12:51:54.820Z,55.08
2023-02-23T12:53:31.485Z,54.23
2023-02-23T12:55:04.396Z,55.10
2023-02-23T12:56:47.502Z,54.19
2023-02-23T12:58:42.911Z,53.48
2023-02-23T13:00:33.577Z,54.33
2023-02-23T13:02:17.861Z,54.41
2023-02-23T13:04:01.485Z,54.26
2023-02-23T13:05:34.922Z,54.62
2023-02-23T13:07:09.902Z,54.05
2023-02-23T13:08:59.561Z,53.78
2023-02-23T13:10:40.440Z,53.67
2023-02-23T13:12:37.060Z,54.09
2023-02-23T13:14:33.362Z,53.75
2023-02-23T13:16:25.620Z,53.82
2023-02-23T13:18:06.716Z,53.14
2023-02-23T13:19:56.280Z,53.69
2023-02-23T13:21:36.207Z,53.65
2023-02-23T13:23:28.529Z,54.45
2023-02-23T13:25:05.136Z,53.20
2023-02-23T13:26:44.754Z,53.33
2023-02-23T13:28:28.652Z,53.28
2023-02-23T13:30:00.825Z,52.90
2023-02-23T13:31:36.387Z,53.97
2023-02-23T13:33:17.901Z,53.71
2023-02-23T13:34:58.563Z,53.53
2023-02-23T13:36:31.937Z,53.66
2023-02-23T13:38:09.839Z,54.48
2023-02-23T13:39:56.990Z,54.11
2023-02-23T13:41:40.296Z,54.55
2023-02-23T13:43:24.036Z,54.28
2023-02-23T13:45:06.807Z,54.01
2023-02-23T13:47:04.670Z,54.37
2023-02-23T13:49:01.758Z,54.69
2023-02-23T13:50:41.831Z,54.71
2023-02-23T13:52:33.754Z,54.26
2023-02-23T13:54:08.039Z,54.50
2023-02-23T13:55:51.989Z,54.41
2023-02-23T13:57:23.964Z,53.77
2023-02-23T13:59:00.995Z,53.92
2023-02-23T14:00:34.601Z,53.59
2023-02-23T14:02:24.280Z,53.13
2023-02-23T14:03:58.497Z,53.31
2023-02-23T14:05:30.649Z,53.29
2023-02-23T14:07:25.708Z,53.32
2023-02-23T14:09:20.985Z,53.18
2023-02-23T14:10:54.781Z,53.76
2023-02-23T14:12:42.471Z,53.85
2023-02-23T14:14:36.402Z,53.43
2023-02-23T14:16:19.749Z,53.52
2023-02-23T14:18:02.772Z,53.48
2023-02-23T14:19:40.292Z,53.84
2023-02-23T14:21:35.345Z,53.72
2023-02-23T14:23:28.952Z,53.59
2023-02-23T14:25:34.837Z,54.01
2023-02-23T14:27:41.546Z,54.57
2023-02-23T14:29:19.520Z,53.98
2023-02-23T14:31:07.113Z,53.64
2023-02-23T14:32:45.937Z,53.34
2023-02-23T14:34:23.203Z,53.20
2023-02-23T14:35:55.297Z,53.38
2023-02-23T14:37:36.993Z,53.26
2023-02-23T14:39:23.393Z,54.08
2023-02-23T14:40:58.900Z,53.82
2023-02-23T14:42:30.899Z,53.92
2023-02-23T14:44:28.355Z,54.00
2023-02-23T14:46:02.441Z,53.62
2023-02-23T14:47:46.253Z,54.01
2023-02-23T14:49:21.728Z,53.94
2023-02-23T14:51:16.516Z,54.00
2023-02-23T14:52:49.101Z,54.28
2023-02-23T14:56:00.797Z,54.33
2023-02-23T14:57:36.680Z,54.57
2023-02-23T14:59:09.062Z,54.62
2023-02-23T15:00:42.944Z,54.56
2023-02-23T15:02:22.256Z,54.46
2023-02-23T15:04:11.685Z,54.65
2023-02-23T15:05:57.797Z,55.03
2023-02-23T15:07:37.770Z,55.11
2023-02-23T15:09:19.443Z,55.15
2023-02-23T15:11:01.032Z,54.93
2023-02-23T15:12:38.241Z,55.42
2023-02-23T15:14:27.007Z,55.48
2023-02-23T15:16:04.511Z,56.03
2023-02-23T15:17:38.886Z,55.46
2023-02-23T15:19:18.431Z,55.28
2023-02-23T15:20:50.916Z,55.42
2023-02-23T15:22:26.506Z,55.65
2023-02-23T15:24:04.924Z,55.86
2023-02-23T15:25:40.783Z,55.77
2023-02-23T15:27:22.977Z,55.85
2023-02-23T15:28:57.283Z,55.95
2023-02-23T15:30:33.342Z,55.63
2023-02-23T15:32:20.211Z,55.78
2023-02-23T15:33:52.397Z,55.68
2023-02-23T15:35:24.538Z,55.91
2023-02-23T15:36:59.647Z,55.77
2023-02-23T15:38:43.537Z,55.81
2023-02-23T15:40:19.585Z,55.82
2023-02-23T15:41:51.619Z,55.92
2023-02-23T15:43:24.275Z,56.10
2023-02-23T15:45:01.307Z,56.10
2023-02-23T15:46:34.496Z,56.20
2023-02-23T15:48:09.681Z,56.21
2023-02-23T15:49:42.528Z,56.45
2023-02-23T15:51:38.594Z,56.41
2023-02-23T15:54:55.276Z,56.28
2023-02-23T15:56:28.163Z,56.49
2023-02-23T15:58:02.524Z,56.35
2023-02-23T15:59:36.636Z,56.78
2023-02-23T16:01:12.171Z,56.62
2023-02-23T16:02:44.991Z,56.59
2023-02-23T16:04:19.588Z,56.76
2023-02-23T16:06:29.109Z,57.08
2023-02-23T16:08:23.136Z,57.78
2023-02-23T16:10:03.239Z,57.82
2023-02-23T16:11:36.520Z,58.09
2023-02-23T16:13:10.022Z,58.87
2023-02-23T16:14:57.564Z,58.96
2023-02-23T16:16:29.799Z,59.22
2023-02-23T16:18:04.777Z,59.55
2023-02-23T16:19:41.337Z,59.94
2023-02-23T16:21:23.522Z,59.78
2023-02-23T16:22:56.429Z,59.98
2023-02-23T16:24:29.322Z,60.49
2023-02-23T16:26:13.296Z,60.29
2023-02-23T16:27:45.438Z,60.41
2023-02-23T16:29:25.677Z,60.28
2023-02-23T16:30:59.607Z,59.93
2023-02-23T16:32:37.417Z,59.90
2023-02-23T16:34:27.873Z,59.85
2023-02-23T16:36:14.206Z,60.11
2023-02-23T16:38:02.372Z,60.37
2023-02-23T16:39:34.703Z,60.45
2023-02-23T16:41:21.697Z,59.83
2023-02-23T16:42:54.916Z,60.70
2023-02-23T16:44:41.404Z,60.59
2023-02-23T16:46:16.384Z,60.98
2023-02-23T16:47:48.829Z,61.01
2023-02-23T16:49:23.685Z,61.42
2023-02-23T16:50:55.795Z,61.58
2023-02-23T16:52:30.899Z,61.52
2023-02-23T16:54:05.740Z,61.39
2023-02-23T16:55:40.824Z,61.29
2023-02-23T16:57:25.678Z,61.35
2023-02-23T16:59:00.900Z,61.22
2023-02-23T17:00:33.958Z,61.02
2023-02-23T17:02:10.364Z,61.28
2023-02-23T17:03:52.801Z,61.38
2023-02-23T17:05:25.405Z,61.66
2023-02-23T17:06:58.121Z,61.87
2023-02-23T17:08:30.453Z,62.22
2023-02-23T17:10:02.536Z,62.15
2023-02-23T17:11:34.609Z,62.55
2023-02-23T17:13:09.013Z,62.34
2023-02-23T17:14:41.129Z,63.84
2023-02-23T17:16:14.229Z,63.97
2023-02-23T17:17:46.245Z,64.13
2023-02-23T17:19:20.090Z,64.69
2023-02-23T17:20:52.827Z,64.59
2023-02-23T17:22:24.875Z,64.62
2023-02-23T17:24:02.967Z,65.11
2023-02-23T17:25:35.478Z,64.97
2023-02-23T17:27:07.576Z,65.12
2023-02-23T17:28:40.162Z,64.89
2023-02-23T17:30:12.784Z,64.77
2023-02-23T17:31:45.942Z,64.72
2023-02-23T17:33:18.503Z,65.54
2023-02-23T17:34:52.581Z,65.60
2023-02-23T17:36:27.776Z,66.19
2023-02-23T17:38:01.599Z,66.51
2023-02-23T17:39:33.658Z,66.68
2023-02-23T17:41:11.293Z,66.97
2023-02-23T17:42:43.697Z,66.93
2023-02-23T17:44:15.869Z,67.27
2023-02-23T17:45:48.589Z,67.15
2023-02-23T17:47:20.614Z,67.16
2023-02-23T17:48:55.106Z,67.47
2023-02-23T17:50:28.497Z,67.64
2023-02-23T17:53:33.746Z,68.14
2023-02-23T17:55:06.299Z,68.83
2023-02-23T17:56:38.389Z,69.32
2023-02-23T17:58:10.425Z,69.49
2023-02-23T17:59:42.482Z,70.14
2023-02-23T18:01:14.721Z,70.00
2023-02-23T18:02:47.329Z,70.21
2023-02-23T18:04:19.440Z,70.47
2023-02-23T18:05:53.063Z,70.39
2023-02-23T18:07:25.304Z,70.33
2023-02-23T18:08:57.464Z,70.26
2023-02-23T18:10:31.740Z,70.35
2023-02-23T18:12:04.164Z,70.38
2023-02-23T18:13:36.647Z,71.30
2023-02-23T18:15:09.117Z,71.21
2023-02-23T18:16:41.382Z,71.36
2023-02-23T18:18:13.455Z,71.55
2023-02-23T18:19:47.031Z,71.55
2023-02-23T18:21:22.109Z,71.88
2023-02-23T18:22:54.165Z,71.96
2023-02-23T18:24:27.613Z,71.70
2023-02-23T18:26:09.561Z,71.43
2023-02-23T18:27:41.588Z,71.65
2023-02-23T18:29:13.589Z,71.44
2023-02-23T18:30:45.842Z,71.26
2023-02-23T18:32:18.041Z,71.54
2023-02-23T18:33:53.184Z,71.59
2023-02-23T18:35:25.273Z,71.53
2023-02-23T18:36:58.984Z,71.77
2023-02-23T18:38:31.283Z,71.56
2023-02-23T18:40:03.676Z,71.32
2023-02-23T18:41:35.884Z,71.01
2023-02-23T18:43:08.213Z,70.60
2023-02-23T18:44:41.338Z,70.83
2023-02-23T18:46:14.239Z,71.20
2023-02-23T18:47:46.220Z,70.83
2023-02-23T18:49:20.743Z,70.95
2023-02-23T18:50:56.977Z,71.06
2023-02-23T18:52:29.102Z,71.32
2023-02-23T18:54:02.622Z,71.03
2023-02-23T18:55:36.114Z,70.67
2023-02-23T18:57:08.226Z,71.00
2023-02-23T18:58:44.946Z,71.41
2023-02-23T19:00:18.405Z,71.21
2023-02-23T19:01:50.291Z,70.94
2023-02-23T19:03:22.384Z,71.27
2023-02-23T19:04:54.637Z,71.38
2023-02-23T19:06:26.919Z,71.56
2023-02-23T19:07:58.955Z,71.49
2023-02-23T19:09:31.003Z,71.65
2023-02-23T19:11:03.363Z,72.03
2023-02-23T19:12:36.402Z,72.05
2023-02-23T19:14:16.332Z,72.10
2023-02-23T19:15:50.107Z,72.40
2023-02-23T19:17:23.974Z,72.57
2023-02-23T19:18:56.118Z,72.43
2023-02-23T19:20:32.962Z,72.43
2023-02-23T19:22:04.921Z,72.17
2023-02-23T19:23:37.893Z,71.99
2023-02-23T19:25:11.971Z,72.03
2023-02-23T19:26:44.866Z,71.86
2023-02-23T19:28:21.510Z,71.70
2023-02-23T19:29:53.688Z,71.96
2023-02-23T19:31:26.455Z,71.74
2023-02-23T19:33:01.176Z,71.74
2023-02-23T19:34:33.385Z,71.47
2023-02-23T19:36:06.880Z,71.39
2023-02-23T19:37:40.474Z,71.51
2023-02-23T19:39:16.163Z,71.70
2023-02-23T19:40:48.380Z,71.70
2023-02-23T19:42:20.806Z,71.70
2023-02-23T19:43:52.815Z,71.71
2023-02-23T19:45:26.203Z,71.90
2023-02-23T19:46:58.253Z,71.79
2023-02-23T19:48:30.392Z,71.86
2023-02-23T19:50:02.396Z,72.05
2023-02-23T19:51:34.519Z,71.90
2023-02-23T19:53:06.725Z,72.05
2023-02-23T19:54:39.018Z,72.17
2023-02-23T19:56:13.409Z,72.18
2023-02-23T19:57:45.584Z,72.23
2023-02-23T19:59:17.576Z,72.33
2023-02-23T20:00:50.001Z,72.39
2023-02-23T20:02:22.145Z,72.70
2023-02-23T20:04:02.208Z,72.65
2023-02-23T20:05:42.662Z,72.41
2023-02-23T20:07:15.100Z,72.55
2023-02-23T20:08:48.576Z,72.96
2023-02-23T20:10:26.257Z,72.79
2023-02-23T20:11:58.298Z,72.88
2023-02-23T20:13:30.436Z,72.60
2023-02-23T20:15:03.242Z,72.74
2023-02-23T20:16:36.099Z,72.95
2023-02-23T20:18:08.668Z,73.22
2023-02-23T20:19:40.734Z,73.33
2023-02-23T20:21:17.845Z,73.77
2023-02-23T20:22:52.826Z,73.95
2023-02-23T20:24:27.983Z,74.11
2023-02-23T20:26:00.001Z,74.11
2023-02-23T20:27:33.261Z,74.36
2023-02-23T20:29:11.229Z,74.53
2023-02-23T20:30:49.380Z,74.76
2023-02-23T20:32:21.638Z,75.17
2023-02-23T20:33:54.697Z,75.02
2023-02-23T20:35:28.127Z,75.64
2023-02-23T20:37:00.255Z,75.50
2023-02-23T20:38:32.587Z,75.58
2023-02-23T20:40:10.478Z,75.64
2023-02-23T20:41:44.417Z,76.01
2023-02-23T20:43:17.025Z,76.04
2023-02-23T20:44:49.297Z,76.26
2023-02-23T20:46:21.531Z,76.22
2023-02-23T20:47:53.953Z,76.10
2023-02-23T20:49:27.682Z,76.22
2023-02-23T20:51:00.020Z,76.41
2023-02-23T20:52:32.280Z,76.13
2023-02-23T20:54:04.660Z,75.95
2023-02-23T20:55:36.737Z,76.12
2023-02-23T20:57:09.442Z,76.12
2023-02-23T20:58:41.476Z,76.23
2023-02-23T21:00:15.006Z,76.08
2023-02-23T21:01:47.326Z,76.11
2023-02-23T21:03:19.518Z,76.64
2023-02-23T21:04:51.581Z,76.65
2023-02-23T21:06:25.069Z,76.78
2023-02-23T21:08:01.117Z,76.64
2023-02-23T21:09:33.540Z,77.18
2023-02-23T21:11:07.206Z,76.92
2023-02-23T21:12:39.335Z,77.18
2023-02-23T21:14:11.464Z,77.16
2023-02-23T21:15:45.165Z,77.35
2023-02-23T21:17:17.215Z,77.30
2023-02-23T21:18:54.164Z,77.38
2023-02-23T21:20:27.862Z,77.56
2023-02-23T21:22:00.934Z,77.79
2023-02-23T21:25:12.385Z,77.79
2023-02-23T21:26:44.830Z,77.99
2023-02-23T21:28:16.980Z,78.34
2023-02-23T21:29:49.416Z,78.44
2023-02-23T21:31:21.706Z,78.27
2023-02-23T21:32:54.648Z,78.61
2023-02-23T21:34:26.848Z,78.67
2023-02-23T21:35:59.301Z,78.70
2023-02-23T21:37:31.342Z,78.51
2023-02-23T21:39:04.980Z,78.32
2023-02-23T21:40:42.530Z,78.54
2023-02-23T21:42:14.587Z,78.53
2023-02-23T21:43:46.956Z,78.57
2023-02-23T21:45:19.364Z,78.67
2023-02-23T21:46:52.190Z,78.65
2023-02-23T21:48:25.976Z,78.66
2023-02-23T21:49:58.488Z,78.41
2023-02-23T21:51:31.389Z,78.54
2023-02-23T21:53:03.486Z,78.71
2023-02-23T21:54:36.946Z,78.84
2023-02-23T21:56:21.423Z,78.76
2023-02-23T21:57:53.268Z,78.70
2023-02-23T21:59:25.163Z,78.51
2023-02-23T22:00:57.111Z,78.45
2023-02-23T22:02:32.357Z,78.57
2023-02-23T22:04:05.101Z,78.39
2023-02-23T22:05:36.980Z,78.66
2023-02-23T22:07:09.164Z,78.68
2023-02-23T22:08:43.291Z,78.55
2023-02-23T22:10:15.558Z,78.67
2023-02-23T22:11:47.646Z,78.63
2023-02-23T22:13:19.601Z,78.73
2023-02-23T22:14:51.546Z,78.71
2023-02-23T22:16:23.458Z,78.76
2023-02-23T22:17:55.897Z,78.73
2023-02-23T22:19:27.951Z,78.92
2023-02-23T22:21:00.386Z,78.89
2023-02-23T22:22:36.296Z,78.74
2023-02-23T22:24:08.536Z,78.99
2023-02-23T22:25:40.649Z,79.08
2023-02-23T22:27:12.503Z,79.15
2023-02-23T22:28:44.464Z,79.35
2023-02-23T22:30:16.334Z,79.14
2023-02-23T22:31:48.380Z,79.40
2023-02-23T22:33:20.486Z,79.41
2023-02-23T22:34:52.417Z,79.33
2023-02-23T22:36:24.341Z,79.42
2023-02-23T22:37:56.314Z,79.48
2023-02-23T22:39:33.643Z,79.79
2023-02-23T22:41:11.977Z,79.99
2023-02-23T22:42:49.912Z,80.22
2023-02-23T22:44:22.979Z,80.16
2023-02-23T22:45:55.176Z,80.24
2023-02-23T22:47:26.986Z,80.35
2023-02-23T22:49:01.900Z,80.10
2023-02-23T22:50:34.382Z,80.54
2023-02-23T22:52:06.230Z,80.45
2023-02-23T22:53:38.459Z,80.51
2023-02-23T22:55:11.303Z,80.50
2023-02-23T22:56:43.143Z,80.45
2023-02-23T22:58:18.033Z,80.57
2023-02-23T23:00:00.420Z,80.55
2023-02-23T23:01:32.761Z,80.82
2023-02-23T23:03:05.205Z,80.75
2023-02-23T23:04:37.148Z,80.76
2023-02-23T23:06:10.523Z,80.81
2023-02-23T23:07:42.383Z,80.89
2023-02-23T23:09:16.588Z,80.91
2023-02-23T23:10:50.275Z,80.77
2023-02-23T23:12:22.185Z,80.46
2023-02-23T23:13:57.916Z,80.38
2023-02-23T23:15:29.701Z,80.64
2023-02-23T23:17:02.648Z,80.53
2023-02-23T23:18:34.793Z,80.66
2023-02-23T23:20:12.153Z,80.76
2023-02-23T23:21:44.692Z,80.85
2023-02-23T23:23:17.544Z,80.87
2023-02-23T23:24:49.370Z,80.90
2023-02-23T23:26:21.806Z,80.79
2023-02-23T23:29:34.026Z,80.90
2023-02-23T23:31:10.794Z,80.90
2023-02-23T23:32:42.802Z,80.67
2023-02-23T23:34:16.853Z,80.62
2023-02-23T23:35:49.580Z,80.66
2023-02-23T23:37:21.366Z,80.66
2023-02-23T23:38:56.881Z,80.66
2023-02-23T23:40:28.677Z,80.31
2023-02-23T23:42:02.252Z,80.27
2023-02-23T23:43:37.251Z,79.81
2023-02-23T23:45:10.019Z,80.07
2023-02-23T23:46:45.936Z,80.29
2023-02-23T23:48:17.861Z,80.29
2023-02-23T23:49:50.332Z,80.33
2023-02-23T23:51:24.631Z,80.39
2023-02-23T23:52:57.354Z,80.49
2023-02-23T23:54:31.164Z,80.68
2023-02-23T23:56:08.769Z,80.81
2023-02-23T23:57:41.285Z,80.99
2023-02-23T23:59:16.556Z,80.91
